Wetterdaten Winter 2019/2020

Datum T max T min Regen
01.12.2019 2.9 °C -1.7 °C 0 mm
02.12.2019 3.9 °C -1.2 °C 0 mm
03.12.2019 4.4 °C -2.4 °C 0 mm
04.12.2019 4.1 °C -4.1 °C 0 mm
05.12.2019 3 °C -4.3 °C 0 mm
06.12.2019 8.2 °C -5.1 °C 0 mm
07.12.2019 8.7 °C 6.3 °C 2.6 mm
08.12.2019 11.3 °C 6.3 °C 1.8 mm
09.12.2019 8.8 °C 4.9 °C 5.4 mm
10.12.2019 4.9 °C -1 °C 0 mm
11.12.2019 3.4 °C -1.9 °C 9.6 mm
12.12.2019 5.2 °C -0.1 °C 0 mm
13.12.2019 6 °C -0.1 °C 3.4 mm
14.12.2019 8.7 °C 3.8 °C 1 mm
15.12.2019 13.5 °C 6.5 °C 3.6 mm
16.12.2019 12.7 °C 5.6 °C 0 mm
17.12.2019 11 °C 3.1 °C 0 mm
18.12.2019 10.2 °C 4.4 °C 0 mm
19.12.2019 9 °C 1 °C 0.2 mm
20.12.2019 7.8 °C 1.1 °C 0.8 mm
21.12.2019 8.8 °C 0.8 °C 0 mm
22.12.2019 9.3 °C 3.2 °C 4.6 mm
23.12.2019 7.8 °C 5.8 °C 1.2 mm
24.12.2019 8.8 °C 4.4 °C 3.8 mm
25.12.2019 8.1 °C 4.6 °C 12 mm
26.12.2019 4.6 °C 0.2 °C 0 mm
27.12.2019 6.2 °C 3.6 °C 1.2 mm
28.12.2019 3.6 °C -2.2 °C 0 mm
29.12.2019 1.6 °C -4.7 °C 0 mm
30.12.2019 4.8 °C -3.4 °C 0 mm
31.12.2019 3.7 °C -3.4 °C 0 mm
01.01.2020 4.1 °C -2.4 °C 0 mm
02.01.2020 0.7 °C -3.4 °C 0.2 mm
03.01.2020 8.4 °C 0.5 °C 0.6 mm
04.01.2020 7.1 °C 2.9 °C 1.3 mm
05.01.2020 5 °C -0.4 °C 0 mm
06.01.2020 3.9 °C -3.3 °C 0.2 mm
07.01.2020 6.2 °C -2.8 °C 0.4 mm
08.01.2020 5.9 °C -0.8 °C 0.6 mm
09.01.2020 12.9 °C 5.7 °C 0.6 mm
10.01.2020 11.9 °C 5.5 °C 3.4 mm
11.01.2020 5.6 °C -1.2 °C 0 mm
12.01.2020 2.9 °C -3.7 °C 0 mm
13.01.2020 6.9 °C 2.6 °C 0.4 mm
14.01.2020 10.9 °C 0.7 °C 0 mm
15.01.2020 12.4 °C 1.7 °C 0 mm
16.01.2020 11.6 °C 3.9 °C 0 mm
17.01.2020 9.6 °C -0.1 °C 1 mm
18.01.2020 6.3 °C 1.9 °C 0.2 mm
19.01.2020 2.9 °C 0.2 °C 0.8 mm
20.01.2020 4.8 °C -2.3 °C 0 mm
21.01.2020 0.9 °C -4.7 °C 0 mm
22.01.2020 -1.8 °C -6.2 °C 0 mm
23.01.2020 0.2 °C -5.2 °C 0 mm
24.01.2020 3.3 °C -2.8 °C 0 mm
25.01.2020 5.7 °C -3.1 °C 0 mm
26.01.2020 5.1 °C -2.6 °C 0 mm
27.01.2020 10.1 °C -1.2 °C 0.6 mm
28.01.2020 6.6 °C 0.7 °C 2.4 mm
29.01.2020 4.8 °C 0.6 °C 3.4 mm
30.01.2020 9.1 °C 3.4 °C 2 mm
31.01.2020 13 °C 8.2 °C 1.2 mm
01.02.2020 14.7 °C 9.8 °C 1.4 mm
02.02.2020 13.6 °C 8.6 °C 4 mm
03.02.2020 9.6 °C 6.8 °C 10 mm
04.02.2020 12.7 °C 1.8 °C 6.6 mm
05.02.2020 5.7 °C -1.5 °C 0 mm
06.02.2020 5.6 °C -3.4 °C 0 mm
07.02.2020 7 °C -4 °C 0 mm
08.02.2020 8.8 °C -2.9 °C 0 mm
09.02.2020 14.1 °C 0.2 °C 0 mm
10.02.2020 14.3 °C 4.7 °C 7 mm
11.02.2020 6.9 °C 2.8 °C 3.8 mm
12.02.2020 5.4 °C 2.1 °C 1 mm
13.02.2020 7.4 °C 0.2 °C 2.2 mm
14.02.2020 8.3 °C 4.1 °C 2.2 mm
15.02.2020 11.6 °C 0.7 °C 0 mm
16.02.2020 19.3 °C 7.9 °C 0 mm
17.02.2020 15.2 °C 5 °C 7.5 mm
18.02.2020 8 °C 3.2 °C 0.2 mm
19.02.2020 6.8 °C 2.5 °C 0.8 mm
20.02.2020 10.2 °C 2.9 °C 0.2 mm
21.02.2020 7.6 °C 2.5 °C 0.2 mm
22.02.2020 13.9 °C 0.1 °C 0 mm
23.02.2020 14.3 °C 6.7 °C 3 mm
24.02.2020 13.8 °C 4 °C 7 mm
25.02.2020 9.4 °C 3.4 °C 5.6 mm
26.02.2020 4.6 °C 0.9 °C 2.6 mm
27.02.2020 4.5 °C -0.1 °C 7.6 mm
28.02.2020 7.3 °C 0.9 °C 0.4 mm
29.02.2020 15.2 °C 4.6 °C 3.8 mm
*) Messwert für diesen Zeitpunkt noch nicht verfügbar
 Hinweis zur Datenqualität
∅ Temperatur

4.1 °C

Abweichung vom Mittel

+2.1 °C

Niederschlag

147.6 mm

Abweichung vom Mittel

119 %

°C

Lufttemperatur
01.01.1970

0 hPa

Luftdruck
01.01.1970

km/h

Windböen
01.01.1970

mm

Niederschlag
 

°C

Lufttemperatur
01.01.1970

*) °C

Bodentemperatur 5cm
01.01.1970

0 hPa

Luftdruck
01.01.1970
*) Messwert für diesen Zeitpunkt noch nicht verfügbar
 Hinweis zur Datenqualität